Amy-c — MKWC7 — position and weather

sailwx.info

Track history (hours):
 
Tides and Currents Weather Stations Pressure Air Temp Water Temp Dewpoint Dewpoint Depression Visibility Wind Speed Wind Dir Waves Ship Positions

Amy-c

Last reported at 2016-Feb-08 11:12 UTC. Time now 2016-Feb-08 12:32 UTC.
Position N 40°39' W 008°44'.

Length 137 m; draft 5.4 m.

Type: Cargo ship. MMSI: 235010170.

Date/timePositionNaut miles runAvg speedWind from/ knotsBaromVisibWave heightAir tempDewpointWater temp
2016-Feb-08 11:12N 40°39' W 008°44'2 2.9
2016-Feb-08 10:33N 40°38' W 008°46'5 5.3
2016-Feb-08 09:33N 40°38' W 008°53'6 6.1
2016-Feb-08 08:33N 40°39' W 009°01'5 5.4
2016-Feb-08 07:34N 40°40' W 009°08'2 1.8
2016-Feb-08 06:34N 40°41' W 009°10'2 1.9
2016-Feb-08 05:34N 40°41' W 009°13'2 2.0
2016-Feb-08 04:33N 40°41' W 009°15'2 1.6
2016-Feb-08 03:34N 40°41' W 009°17'2 1.8
2016-Feb-08 02:33N 40°42' W 009°19'2 2.1
2016-Feb-08 01:31N 40°42' W 009°22'2 2.3
2016-Feb-08 00:30N 40°43' W 009°25'2 2.0
2016-Feb-07 23:30N 40°44' W 009°28'2 2.0
2016-Feb-07 22:30N 40°45' W 009°30'7 7.1
2016-Feb-07 21:34N 40°47' W 009°21'1111.2
2016-Feb-07 20:33N 40°49' W 009°07'1010.0
2016-Feb-07 19:32N 40°52' W 008°54'2 2.4
2016-Feb-07 18:33N 40°53' W 008°52'2 1.8
2016-Feb-07 17:34N 40°54' W 008°54'2 2.0
2016-Feb-07 16:33N 40°54' W 008°57'2 2.1
2016-Feb-07 15:33N 40°55' W 008°59'2 1.6
2016-Feb-07 14:32N 40°55' W 009°01'1111.6
2016-Feb-07 13:34N 41°06' W 009°06'1312.8
2016-Feb-07 12:33N 41°18' W 009°12'1514.2
2016-Feb-07 11:30N 41°31' W 009°20'1112.1
2016-Feb-07 10:33N 41°42' W 009°26'1312.9
2016-Feb-07 09:33N 41°54' W 009°33'  
Track history (hours):
 
Tides and Currents Weather Stations Pressure Air Temp Water Temp Dewpoint Dewpoint Depression Visibility Wind Speed Wind Dir Waves Ship Positions

Amy-c

Last reported at 2016-Feb-08 11:12 UTC. Time now 2016-Feb-08 12:32 UTC.
Position N 40°39' W 008°44'.

Length 137 m; draft 5.4 m.

Type: Cargo ship. MMSI: 235010170.

Date/timePositionNaut miles runAvg speedWind from/ knotsBaromVisibWave heightAir tempDewpointWater temp
2016-Feb-08 11:12N 40°39' W 008°44'2 2.9
2016-Feb-08 10:33N 40°38' W 008°46'5 5.3
2016-Feb-08 09:33N 40°38' W 008°53'6 6.1
2016-Feb-08 08:33N 40°39' W 009°01'5 5.4
2016-Feb-08 07:34N 40°40' W 009°08'2 1.8
2016-Feb-08 06:34N 40°41' W 009°10'2 1.9
2016-Feb-08 05:34N 40°41' W 009°13'2 2.0
2016-Feb-08 04:33N 40°41' W 009°15'2 1.6
2016-Feb-08 03:34N 40°41' W 009°17'2 1.8
2016-Feb-08 02:33N 40°42' W 009°19'2 2.1
2016-Feb-08 01:31N 40°42' W 009°22'2 2.3
2016-Feb-08 00:30N 40°43' W 009°25'2 2.0
2016-Feb-07 23:30N 40°44' W 009°28'2 2.0
2016-Feb-07 22:30N 40°45' W 009°30'7 7.1
2016-Feb-07 21:34N 40°47' W 009°21'1111.2
2016-Feb-07 20:33N 40°49' W 009°07'1010.0
2016-Feb-07 19:32N 40°52' W 008°54'2 2.4
2016-Feb-07 18:33N 40°53' W 008°52'2 1.8
2016-Feb-07 17:34N 40°54' W 008°54'2 2.0
2016-Feb-07 16:33N 40°54' W 008°57'2 2.1
2016-Feb-07 15:33N 40°55' W 008°59'2 1.6
2016-Feb-07 14:32N 40°55' W 009°01'1111.6
2016-Feb-07 13:34N 41°06' W 009°06'1312.8
2016-Feb-07 12:33N 41°18' W 009°12'1514.2
2016-Feb-07 11:30N 41°31' W 009°20'1112.1
2016-Feb-07 10:33N 41°42' W 009°26'1312.9
2016-Feb-07 09:33N 41°54' W 009°33'  

Dump ship's entire track history